Time;durP1;ratioP1;P1;durP2;ratioP2;P2;SDS_P1;SDS_P2;PMS_P1;PMS_P2;Temp;Humidity;BMP_temperature;BMP_pressure;BME280_temperature;BME280_humidity;BME280_pressure;Samples;Min_cycle;Max_cycle;Signal;HPM_P1;HPM_P2
2022/05/25 00:00:46;;;;;;;11.12;7.65;;;;;;;16.51;73.99;99836.28;2051033;86;27671;-66
2022/05/25 00:03:49;;;;;;;9.20;6.87;;;;;;;16.51;73.99;99836.28;2051370;86;29071;-65
2022/05/25 00:06:51;;;;;;;9.18;7.95;;;;;;;16.51;73.92;99834.45;2051414;85;31083;-65
2022/05/25 00:09:53;;;;;;;17.57;15.30;;;;;;;16.51;74.11;99833.58;2051437;86;33039;-65
2022/05/25 00:12:55;;;;;;;19.37;17.32;;;;;;;16.48;74.05;99835.17;2051001;86;30573;-64
2022/05/25 00:15:56;;;;;;;20.10;16.25;;;;;;;16.42;74.14;99832.99;2051098;85;27668;-64
2022/05/25 00:22:18;;;;;;;19.10;16.90;;;;;;;16.25;73.98;99812.25;2085488;85;31450;-64
2022/05/25 00:25:30;;;;;;;19.95;17.27;;;;;;;16.31;74.09;99833.36;2085085;85;34219;-65
2022/05/25 00:28:32;;;;;;;17.20;15.53;;;;;;;16.15;74.11;99820.25;2085413;84;29443;-63
2022/05/25 00:31:35;;;;;;;18.23;16.32;;;;;;;16.15;74.11;99820.25;2085161;85;27733;-63
2022/05/25 00:34:37;;;;;;;26.82;20.88;;;;;;;16.25;73.93;99837.93;2085418;85;29102;-63
2022/05/25 00:37:40;;;;;;;23.67;20.62;;;;;;;16.22;74.05;99842.23;2053702;85;31749;-63
2022/05/25 00:40:45;;;;;;;28.62;21.20;;;;;;;16.20;74.07;99846.42;2051013;86;33504;-64
2022/05/25 00:43:46;;;;;;;26.12;20.65;;;;;;;16.19;74.20;99847.87;2051306;86;29378;-64
2022/05/25 00:46:49;;;;;;;23.85;17.45;;;;;;;16.17;74.20;99852.06;2050947;86;27723;-64
2022/05/25 00:49:51;;;;;;;17.37;14.13;;;;;;;16.18;74.30;99864.59;2051134;86;29490;-65
2022/05/25 00:52:53;;;;;;;19.02;13.10;;;;;;;16.18;74.44;99862.37;2029669;86;30687;-64
2022/05/25 00:55:55;;;;;;;18.25;14.33;;;;;;;16.18;74.44;99862.37;2081522;85;32980;-64
2022/05/25 00:59:11;;;;;;;16.75;12.80;;;;;;;16.21;74.55;99860.77;2085503;85;29711;-64
2022/05/25 01:02:13;;;;;;;23.38;12.28;;;;;;;16.21;74.54;99858.95;2051979;86;27738;-63
2022/05/25 01:05:19;;;;;;;16.35;12.10;;;;;;;16.23;74.58;99863.71;2085424;85;28834;-64
2022/05/25 01:08:44;;;;;;;17.75;11.68;;;;;;;16.23;74.59;99864.22;2085436;84;31106;-64
2022/05/25 01:12:18;;;;;;;13.83;11.97;;;;;;;16.23;74.68;99869.12;2085676;85;33130;-64
2022/05/25 01:15:50;;;;;;;18.12;13.13;;;;;;;16.24;74.80;99869.99;2066710;85;29762;-64
2022/05/25 01:19:20;;;;;;;14.63;13.13;;;;;;;16.24;74.82;99877.59;2051168;86;27650;-64
2022/05/25 01:23:00;;;;;;;20.27;15.23;;;;;;;16.23;74.87;99886.69;2051382;86;28726;-64
2022/05/25 01:26:13;;;;;;;21.82;16.70;;;;;;;16.24;74.86;99887.56;2019806;88;32279;-64
2022/05/25 01:29:52;;;;;;;27.40;16.32;;;;;;;16.25;74.81;99902.30;1947717;91;33556;-64
2022/05/25 01:33:08;;;;;;;16.80;13.60;;;;;;;16.25;74.81;99902.30;1989403;88;30414;-65
2022/05/25 01:36:18;;;;;;;14.75;11.73;;;;;;;16.26;75.08;99903.17;1978929;89;27667;-64
2022/05/25 01:39:27;;;;;;;15.80;12.65;;;;;;;16.25;75.03;99905.00;1978481;89;28684;-64
2022/05/25 01:42:33;;;;;;;14.05;12.35;;;;;;;16.25;75.10;99899.59;2008838;88;32315;-64
2022/05/25 01:45:40;;;;;;;14.13;11.22;;;;;;;16.26;75.13;99895.06;1979041;89;32960;-64
2022/05/25 01:48:43;;;;;;;17.90;11.90;;;;;;;16.27;75.10;99905.37;2008546;88;29325;-64
2022/05/25 01:52:00;;;;;;;14.80;11.73;;;;;;;16.27;75.11;99902.66;2008717;88;28233;-64
2022/05/25 01:55:09;;;;;;;14.78;11.40;;;;;;;16.27;75.13;99902.66;2006149;88;28745;-64
2022/05/25 01:58:16;;;;;;;14.63;11.40;;;;;;;16.25;75.12;99902.30;2008906;88;31104;-64
2022/05/25 02:01:17;;;;;;;15.05;11.60;;;;;;;16.24;75.12;99899.22;2008764;88;33123;-63
2022/05/25 02:04:23;;;;;;;13.90;10.45;;;;;;;16.23;75.05;99898.84;2009260;88;29658;-65
2022/05/25 02:07:58;;;;;;;22.27;11.28;;;;;;;16.24;75.32;99900.57;2070621;85;27636;-65
2022/05/25 02:11:40;;;;;;;16.42;11.05;;;;;;;16.24;75.32;99900.57;2080142;85;28743;-64
2022/05/25 02:15:25;;;;;;;14.93;11.50;;;;;;;16.23;75.18;99898.84;2057214;85;32251;-64
2022/05/25 02:19:02;;;;;;;14.40;11.73;;;;;;;16.15;75.17;99882.41;2033459;87;33362;-65
2022/05/25 02:22:12;;;;;;;15.28;11.73;;;;;;;16.19;75.47;99893.34;2033485;87;29357;-64
2022/05/25 02:25:22;;;;;;;16.87;12.07;;;;;;;16.19;75.47;99893.34;2032594;87;27744;-64
2022/05/25 02:28:30;;;;;;;13.93;11.80;;;;;;;16.19;75.41;99900.58;2033256;87;28711;-65
2022/05/25 02:31:36;;;;;;;13.60;11.57;;;;;;;16.18;75.47;99902.91;2019434;87;30882;-64
2022/05/25 02:34:40;;;;;;;13.55;11.10;;;;;;;16.16;75.42;99915.20;2053663;86;33032;-65
2022/05/25 02:37:43;;;;;;;15.35;11.43;;;;;;;16.16;75.47;99912.97;2081701;85;30311;-64
2022/05/25 02:40:45;;;;;;;14.65;11.40;;;;;;;16.16;75.51;99910.27;2088164;85;27534;-65
2022/05/25 02:43:47;;;;;;;15.75;12.23;;;;;;;16.16;75.60;99909.80;2087703;85;30761;-65
2022/05/25 02:46:50;;;;;;;15.25;12.00;;;;;;;16.16;75.55;99901.69;2087807;85;31645;-64
2022/05/25 02:49:52;;;;;;;16.97;11.33;;;;;;;16.15;75.56;99905.38;2088001;85;34089;-64
2022/05/25 02:52:56;;;;;;;17.05;10.82;;;;;;;16.14;75.58;99906.36;2088137;85;30474;-64
2022/05/25 02:55:58;;;;;;;12.82;11.40;;;;;;;16.14;75.65;99905.48;2088297;85;27738;-64
2022/05/25 02:59:00;;;;;;;13.03;11.18;;;;;;;16.13;75.68;99905.98;2087884;85;29898;-65
2022/05/25 03:02:04;;;;;;;14.78;11.28;;;;;;;16.13;75.64;99908.69;2060032;85;32371;-64
2022/05/25 03:05:08;;;;;;;14.73;11.40;;;;;;;16.12;75.62;99911.02;2053581;86;33444;-66
2022/05/25 03:08:10;;;;;;;14.85;12.10;;;;;;;16.13;75.66;99918.65;2053984;85;30186;-64
2022/05/25 03:11:13;;;;;;;15.28;11.75;;;;;;;16.10;75.63;99923.78;2053772;86;27727;-65
2022/05/25 03:14:15;;;;;;;15.90;11.60;;;;;;;16.10;75.71;99929.19;2053707;86;29541;-65
2022/05/25 03:17:18;;;;;;;17.10;11.35;;;;;;;16.09;75.76;99935.58;2053405;86;31110;-64
2022/05/25 03:20:20;;;;;;;16.42;11.57;;;;;;;16.09;75.84;99933.75;2053330;86;33944;-65
2022/05/25 03:23:23;;;;;;;13.40;11.40;;;;;;;16.09;75.86;99941.86;2053402;86;30510;-66
2022/05/25 03:26:25;;;;;;;14.60;11.93;;;;;;;16.10;75.97;99950.80;2059877;85;28140;-66
2022/05/25 03:29:28;;;;;;;17.32;11.53;;;;;;;16.10;76.01;99953.52;2087653;85;29332;-65
2022/05/25 03:32:31;;;;;;;18.32;13.32;;;;;;;16.11;76.02;99953.88;2087761;85;31746;-65
2022/05/25 03:35:34;;;;;;;16.90;11.75;;;;;;;16.12;76.03;99950.70;2087970;85;33130;-64
2022/05/25 03:38:37;;;;;;;15.63;11.50;;;;;;;16.14;76.08;99959.53;2088018;85;30814;-65
2022/05/25 03:41:40;;;;;;;18.92;11.93;;;;;;;16.13;76.16;99958.68;2088102;85;27672;-64
2022/05/25 03:44:44;;;;;;;14.10;11.60;;;;;;;16.14;76.18;99967.16;2087975;85;28125;-64
2022/05/25 03:47:47;;;;;;;17.32;11.70;;;;;;;16.13;76.16;99970.00;2087992;85;31035;-64
2022/05/25 03:50:50;;;;;;;14.45;11.53;;;;;;;16.10;76.13;99964.32;2087739;85;33795;-65
2022/05/25 03:53:53;;;;;;;14.30;11.68;;;;;;;16.08;76.12;99967.16;2069573;85;29881;-65
2022/05/25 03:56:56;;;;;;;13.08;11.38;;;;;;;16.06;76.24;99961.01;2053441;86;27739;-63
2022/05/25 03:59:59;;;;;;;17.82;12.35;;;;;;;16.06;76.24;99960.12;2053296;86;28738;-64
2022/05/25 04:03:02;;;;;;;15.25;12.07;;;;;;;16.05;76.23;99956.58;2053441;86;31709;-64
2022/05/25 04:06:05;;;;;;;16.15;12.05;;;;;;;16.05;76.36;99955.73;2053577;86;33823;-65
2022/05/25 04:09:10;;;;;;;15.08;11.78;;;;;;;16.05;76.37;99963.84;2053320;86;30153;-64
2022/05/25 04:12:12;;;;;;;12.88;11.50;;;;;;;16.07;76.35;99971.31;2053940;86;33196;-63
2022/05/25 04:15:19;;;;;;;13.93;11.55;;;;;;;16.04;76.33;99972.92;2053727;86;29886;-63
2022/05/25 04:18:21;;;;;;;12.90;11.43;;;;;;;16.06;76.53;99980.39;2053439;86;31008;-63
2022/05/25 04:21:23;;;;;;;13.18;11.78;;;;;;;16.06;76.53;99980.39;2062935;85;34191;-64
2022/05/25 04:24:26;;;;;;;14.28;12.25;;;;;;;16.05;76.44;99978.20;2087937;85;29345;-64
2022/05/25 04:27:29;;;;;;;13.88;11.45;;;;;;;16.07;76.57;99982.99;2087911;85;27673;-64
2022/05/25 04:30:31;;;;;;;12.73;11.53;;;;;;;16.04;76.48;99975.12;2087881;85;28597;-64
2022/05/25 04:33:35;;;;;;;12.43;11.03;;;;;;;16.07;76.61;99984.34;2087830;85;31443;-63
2022/05/25 04:36:39;;;;;;;14.47;11.20;;;;;;;16.09;76.66;99993.20;2087840;85;33004;-63
2022/05/25 04:39:45;;;;;;;13.48;10.82;;;;;;;16.10;76.54;100000.80;2087849;85;29333;-63
2022/05/25 04:42:50;;;;;;;12.33;10.10;;;;;;;16.10;76.64;100001.68;2087462;85;27716;-64
2022/05/25 04:45:55;;;;;;;13.08;10.60;;;;;;;16.12;76.64;100006.11;2087250;85;27719;-64
2022/05/25 04:49:00;;;;;;;10.70;9.70;;;;;;;16.10;76.50;100011.61;2087370;85;31085;-64
2022/05/25 04:52:01;;;;;;;10.20;9.18;;;;;;;16.10;76.46;100011.14;2053714;85;34013;-64
2022/05/25 04:55:05;;;;;;;10.63;9.30;;;;;;;16.13;76.53;100008.67;2053395;85;30089;-64
2022/05/25 04:58:23;;;;;;;12.53;9.23;;;;;;;16.14;76.57;100014.45;2053460;86;31936;-64
2022/05/25 05:01:26;;;;;;;11.28;9.48;;;;;;;16.17;76.59;100010.17;2053336;86;28691;-64
2022/05/25 05:04:28;;;;;;;9.35;8.18;;;;;;;16.15;76.27;100018.00;2053293;86;31139;-64
2022/05/25 05:07:33;;;;;;;13.65;9.13;;;;;;;16.15;76.27;100018.00;2052980;86;33083;-64
2022/05/25 05:10:35;;;;;;;9.98;8.55;;;;;;;16.14;76.30;100018.98;2053454;86;31375;-64
2022/05/25 05:13:40;;;;;;;10.30;8.43;;;;;;;16.15;76.35;100025.64;2053461;86;28287;-64
2022/05/25 05:16:43;;;;;;;11.03;8.93;;;;;;;16.05;76.34;100002.52;2053351;86;28693;-64
2022/05/25 05:19:55;;;;;;;13.98;8.95;;;;;;;16.19;76.42;100021.72;2081663;85;31117;-64
2022/05/25 05:23:12;;;;;;;10.48;8.38;;;;;;;16.20;76.32;100023.45;2005922;88;33195;-64
2022/05/25 05:26:19;;;;;;;9.10;7.00;;;;;;;16.22;76.18;100027.37;1966308;89;29660;-64
2022/05/25 05:29:24;;;;;;;8.18;7.35;;;;;;;16.22;76.20;100039.53;1952479;91;27717;-64
2022/05/25 05:32:26;;;;;;;12.82;7.67;;;;;;;16.22;76.18;100040.88;1986618;89;28837;-64
2022/05/25 05:35:28;;;;;;;8.13;7.08;;;;;;;16.23;76.11;100044.80;1986469;89;31865;-64
2022/05/25 05:38:32;;;;;;;8.10;7.25;;;;;;;16.23;75.87;100046.66;1952102;91;34365;-63
2022/05/25 05:41:39;;;;;;;10.28;7.53;;;;;;;16.24;75.82;100054.64;1986671;89;29355;-64
2022/05/25 05:44:54;;;;;;;13.35;8.05;;;;;;;16.24;75.75;100054.64;1952229;91;27808;-64
2022/05/25 05:48:07;;;;;;;9.40;7.17;;;;;;;16.29;75.92;100056.12;1952151;91;29702;-64
2022/05/25 05:51:11;;;;;;;10.50;7.37;;;;;;;16.34;75.94;100058.84;1961831;89;31951;-64
2022/05/25 05:54:14;;;;;;;9.43;7.47;;;;;;;16.28;75.90;100036.36;2027853;86;33783;-64
2022/05/25 05:57:16;;;;;;;8.25;7.53;;;;;;;16.46;75.68;100059.73;2087898;85;29341;-64
2022/05/25 06:00:19;;;;;;;12.50;7.12;;;;;;;16.54;75.93;100054.59;2087785;85;28096;-64
2022/05/25 06:03:22;;;;;;;6.42;5.35;;;;;;;16.61;75.46;100057.67;2087554;85;29893;-64
2022/05/25 06:06:26;;;;;;;7.90;5.08;;;;;;;16.59;74.17;100057.41;2087521;85;32293;-64
2022/05/25 06:09:28;;;;;;;6.97;5.72;;;;;;;16.50;73.86;100045.00;2052592;86;33798;-63
2022/05/25 06:12:34;;;;;;;8.55;5.87;;;;;;;16.55;74.25;100063.05;2087884;85;29153;-65
2022/05/25 06:22:20;;;;;;;6.12;5.05;;;;;;;16.42;73.22;100083.93;2051178;86;31915;-64
2022/05/25 06:25:23;;;;;;;7.28;5.00;;;;;;;16.42;73.22;100083.93;2051273;86;33929;-64
2022/05/25 06:28:26;;;;;;;6.10;4.75;;;;;;;16.35;73.34;100077.30;2051491;86;29336;-65
2022/05/25 06:31:31;;;;;;;5.78;4.62;;;;;;;16.27;72.89;100098.64;2051261;86;27695;-65
2022/05/25 06:34:34;;;;;;;5.97;5.37;;;;;;;16.27;72.89;100098.64;2051594;86;28760;-65
2022/05/25 06:37:37;;;;;;;6.53;5.85;;;;;;;16.24;73.33;100103.30;2051334;86;31059;-63
2022/05/25 06:40:39;;;;;;;9.70;6.03;;;;;;;16.25;73.65;100103.67;2050954;86;33953;-66
2022/05/25 06:43:43;;;;;;;9.98;6.15;;;;;;;16.24;73.53;100107.34;2051110;86;28646;-65
2022/05/25 06:46:46;;;;;;;8.95;6.58;;;;;;;16.24;73.71;100114.61;2053217;85;27757;-65
2022/05/25 06:49:53;;;;;;;7.10;6.40;;;;;;;16.24;73.71;100114.61;2051703;85;29883;-63
2022/05/25 06:52:56;;;;;;;6.75;6.05;;;;;;;16.27;73.90;100117.55;2051320;86;31878;-64
2022/05/25 06:56:00;;;;;;;8.93;5.92;;;;;;;16.32;73.85;100120.78;2051003;86;33919;-64
2022/05/25 06:59:03;;;;;;;9.70;6.35;;;;;;;16.36;73.92;100131.73;2051340;86;29341;-64
2022/05/25 07:02:06;;;;;;;6.65;5.83;;;;;;;16.46;74.15;100133.25;2051518;86;28195;-64
2022/05/25 07:05:09;;;;;;;7.45;6.42;;;;;;;16.53;74.17;100131.77;2051048;86;29490;-65
2022/05/25 07:08:11;;;;;;;9.40;6.10;;;;;;;16.40;73.88;100101.63;2051122;86;31728;-64
2022/05/25 07:11:14;;;;;;;10.82;5.37;;;;;;;16.65;73.91;100136.73;2051015;86;34195;-63
2022/05/25 07:14:16;;;;;;;6.83;6.15;;;;;;;16.62;73.06;100141.89;2057000;85;30627;-64
2022/05/25 07:17:19;;;;;;;6.50;5.90;;;;;;;16.60;73.48;100137.56;2085564;85;27669;-64
2022/05/25 07:20:21;;;;;;;7.50;5.15;;;;;;;16.62;73.34;100141.02;2085656;85;29773;-64
2022/05/25 07:23:24;;;;;;;7.28;5.92;;;;;;;16.67;73.27;100150.99;2085128;85;33104;-64
2022/05/25 07:26:29;;;;;;;6.65;5.60;;;;;;;16.66;73.41;100132.53;2085298;85;33744;-64
2022/05/25 07:29:32;;;;;;;7.60;5.30;;;;;;;16.66;73.41;100132.53;2085586;85;30361;-64
2022/05/25 07:32:36;;;;;;;7.22;5.05;;;;;;;16.92;73.19;100159.88;2085621;85;27853;-64
2022/05/25 07:35:39;;;;;;;6.17;4.75;;;;;;;16.92;73.19;100159.88;2085355;85;29883;-64
2022/05/25 07:38:45;;;;;;;5.28;4.80;;;;;;;16.99;73.26;100160.66;2085519;85;30449;-64
2022/05/25 07:41:50;;;;;;;4.55;3.75;;;;;;;17.08;73.08;100161.77;2085299;85;33047;-64
2022/05/25 07:44:56;;;;;;;9.93;5.15;;;;;;;17.18;72.80;100166.47;2073577;85;29322;-64
2022/05/25 07:48:00;;;;;;;5.22;4.47;;;;;;;17.24;72.62;100163.26;2051921;85;27750;-65
2022/05/25 07:51:04;;;;;;;11.53;4.40;;;;;;;17.30;72.58;100170.91;2051571;86;28722;-65
2022/05/25 07:54:07;;;;;;;7.70;4.30;;;;;;;17.41;72.44;100172.24;2051532;86;31870;-65
2022/05/25 07:57:09;;;;;;;5.70;5.10;;;;;;;17.46;72.13;100170.51;2051432;86;33544;-66
2022/05/25 08:00:18;;;;;;;7.65;5.85;;;;;;;17.55;72.31;100166.19;2051028;86;30164;-65
2022/05/25 08:06:43;;;;;;;8.43;4.60;;;;;;;17.67;71.39;100172.47;2051109;86;29247;-66
2022/05/25 08:09:46;;;;;;;5.03;4.58;;;;;;;17.74;71.42;100175.90;2051380;86;31722;-66
2022/05/25 08:12:49;;;;;;;7.97;5.22;;;;;;;17.80;71.56;100177.75;2051272;86;33175;-66
2022/05/25 08:15:52;;;;;;;10.68;5.05;;;;;;;17.79;71.13;100187.70;2077879;85;30168;-66
2022/05/25 08:18:55;;;;;;;5.35;4.75;;;;;;;17.85;71.43;100183.66;2085400;85;28125;-66
2022/05/25 08:21:58;;;;;;;5.28;4.78;;;;;;;17.82;71.17;100183.91;2085286;85;28835;-67
2022/05/25 08:25:00;;;;;;;5.58;4.40;;;;;;;17.83;71.20;100184.28;2085604;85;32233;-66
2022/05/25 08:28:06;;;;;;;7.47;4.70;;;;;;;17.83;70.99;100184.28;2018088;88;34002;-66
2022/05/25 08:31:09;;;;;;;7.78;5.53;;;;;;;17.87;70.90;100186.60;2053385;86;29422;-66
2022/05/25 08:34:11;;;;;;;5.80;4.47;;;;;;;17.85;70.67;100183.16;2053402;86;28195;-65
2022/05/25 08:37:14;;;;;;;4.40;4.00;;;;;;;17.78;69.37;100179.24;2053103;86;29860;-66
2022/05/25 08:40:19;;;;;;;4.87;3.95;;;;;;;17.61;69.57;100186.02;2053026;86;31896;-66
2022/05/25 08:43:42;;;;;;;8.05;3.80;;;;;;;17.55;69.34;100168.91;2053131;86;33191;-67
2022/05/25 08:46:44;;;;;;;6.75;4.12;;;;;;;17.41;69.33;100172.75;2050038;86;29386;-66
2022/05/25 08:49:49;;;;;;;5.92;4.37;;;;;;;17.23;68.74;100166.47;2052964;86;27657;-66
2022/05/25 08:52:57;;;;;;;4.75;4.25;;;;;;;17.14;69.48;100164.48;2053334;86;28665;-66
2022/05/25 08:56:27;;;;;;;7.25;5.92;;;;;;;17.10;69.38;100163.88;2053405;86;31041;-67
2022/05/25 08:59:56;;;;;;;5.00;4.50;;;;;;;16.98;69.58;100163.50;2052783;86;33022;-67
2022/05/25 09:03:25;;;;;;;6.20;3.75;;;;;;;17.01;70.08;100160.55;2053046;86;30296;-66
2022/05/25 09:06:53;;;;;;;6.25;4.05;;;;;;;17.03;70.22;100155.89;2052596;86;27702;-66
2022/05/25 09:09:55;;;;;;;6.22;4.53;;;;;;;17.03;69.38;100153.19;2152937;82;29952;-66
2022/05/25 09:13:11;;;;;;;8.00;4.00;;;;;;;17.07;69.31;100156.50;2152883;82;32095;-65
2022/05/25 09:16:34;;;;;;;5.72;4.05;;;;;;;17.23;69.69;100168.30;2152740;82;32971;-65
2022/05/25 09:19:41;;;;;;;6.10;4.50;;;;;;;17.53;69.71;100172.25;2154252;82;29398;-65
2022/05/25 09:22:44;;;;;;;4.75;4.12;;;;;;;17.89;70.16;100181.04;2140521;82;27652;-65
2022/05/25 09:25:47;;;;;;;6.90;3.87;;;;;;;18.19;69.57;100193.94;2117907;84;29340;-65
2022/05/25 09:28:55;;;;;;;5.70;4.03;;;;;;;18.45;69.01;100193.58;2118242;84;31105;-66
2022/05/25 09:32:28;;;;;;;5.92;4.55;;;;;;;18.68;69.01;100198.91;2118101;84;32984;-66
2022/05/25 09:35:36;;;;;;;5.97;4.40;;;;;;;18.86;68.52;100211.41;2098888;84;30085;-67
2022/05/25 09:39:04;;;;;;;4.25;3.87;;;;;;;18.92;68.27;100212.22;2046421;85;27881;-67
2022/05/25 09:42:06;;;;;;;4.50;4.03;;;;;;;18.97;68.16;100215.92;2123445;83;28863;-66
2022/05/25 09:45:16;;;;;;;6.45;4.10;;;;;;;19.02;67.96;100215.03;2116497;82;31032;-66
2022/05/25 09:48:28;;;;;;;4.92;4.42;;;;;;;19.07;68.06;100224.13;2154374;82;33123;-67
2022/05/25 09:51:44;;;;;;;4.70;3.75;;;;;;;19.06;67.69;100215.14;2160053;82;29567;-66
2022/05/25 09:54:56;;;;;;;5.08;4.05;;;;;;;19.12;67.44;100213.73;2156429;82;27937;-65
2022/05/25 09:58:02;;;;;;;6.83;3.98;;;;;;;19.18;67.67;100212.34;2145769;82;29060;-66
2022/05/25 10:01:18;;;;;;;6.30;3.90;;;;;;;19.20;66.86;100212.55;2154647;82;32427;-66
2022/05/25 10:04:55;;;;;;;4.35;3.50;;;;;;;19.17;67.20;100216.05;2159525;81;33328;-67
2022/05/25 10:08:10;;;;;;;5.58;3.95;;;;;;;19.19;67.47;100214.06;2160648;82;29903;-66
2022/05/25 10:11:35;;;;;;;5.40;3.87;;;;;;;19.22;67.06;100227.37;2154326;82;27718;-66
2022/05/25 10:14:41;;;;;;;4.87;4.40;;;;;;;19.23;67.24;100235.38;2155167;81;29998;-64
2022/05/25 10:17:47;;;;;;;8.63;6.28;;;;;;;19.19;67.29;100228.52;2148085;81;31391;-65
2022/05/25 10:20:49;;;;;;;11.03;8.10;;;;;;;19.18;66.81;100232.23;2120710;83;33806;-66
2022/05/25 10:23:51;;;;;;;7.42;6.30;;;;;;;19.17;66.78;100225.08;2120296;83;30471;-65
2022/05/25 10:26:57;;;;;;;7.15;4.60;;;;;;;19.21;66.83;100222.42;2120779;84;27617;-65
2022/05/25 10:36:58;;;;;;;;;;;;;;;19.25;65.85;100193.16;2122913;83;34357;-66
2022/05/25 10:40:04;;;;;;;10.35;6.22;;;;;;;19.33;65.99;100192.48;2120653;84;30222;-65
2022/05/25 10:43:06;;;;;;;6.40;4.97;;;;;;;19.35;65.63;100195.42;2121789;82;27645;-66
2022/05/25 10:46:08;;;;;;;7.45;4.87;;;;;;;19.49;66.22;100195.56;2157388;82;28615;-66
2022/05/25 10:49:40;;;;;;;7.12;4.28;;;;;;;19.71;66.35;100208.56;2157260;82;31008;-65
2022/05/25 10:52:47;;;;;;;5.78;4.05;;;;;;;19.96;65.64;100205.88;2157462;82;32982;-65
2022/05/25 10:56:19;;;;;;;4.97;3.75;;;;;;;20.21;65.55;100203.64;2155818;81;29174;-65
2022/05/25 10:59:34;;;;;;;5.45;4.25;;;;;;;20.42;64.58;100208.11;2173251;81;27663;-65
2022/05/25 11:03:08;;;;;;;2.95;2.75;;;;;;;20.58;64.38;100193.42;2066926;86;29989;-65
2022/05/25 11:06:34;;;;;;;4.10;3.12;;;;;;;20.76;63.34;100190.01;2046853;86;31652;-66
2022/05/25 11:09:58;;;;;;;4.00;2.98;;;;;;;21.10;63.68;100196.29;2012294;87;34065;-65
2022/05/25 11:13:14;;;;;;;3.90;2.75;;;;;;;21.46;61.93;100199.19;2046789;86;30548;-66
2022/05/25 11:16:43;;;;;;;3.42;2.70;;;;;;;21.84;61.96;100179.59;2046880;86;27625;-67
2022/05/25 11:19:55;;;;;;;4.40;2.70;;;;;;;22.06;60.04;100186.13;2037529;85;28505;-65
2022/05/25 11:23:21;;;;;;;4.80;2.87;;;;;;;22.25;61.35;100199.64;2036738;86;31483;-65
2022/05/25 11:26:41;;;;;;;5.67;4.50;;;;;;;22.50;60.92;100201.78;2036643;87;34003;-66
2022/05/25 11:30:10;;;;;;;4.40;3.65;;;;;;;22.63;59.40;100204.13;2036656;87;30586;-65
2022/05/25 11:33:46;;;;;;;5.37;3.98;;;;;;;22.68;59.66;100203.99;2036395;86;27737;-65
2022/05/25 11:37:02;;;;;;;3.80;3.27;;;;;;;22.80;60.20;100206.46;2037427;87;29035;-65
2022/05/25 11:40:32;;;;;;;4.78;3.08;;;;;;;22.97;59.54;100210.20;2067884;85;31044;-65
2022/05/25 11:44:17;;;;;;;3.40;3.08;;;;;;;22.94;59.05;100214.61;2099421;83;32999;-64
2022/05/25 11:47:39;;;;;;;8.60;3.10;;;;;;;22.72;57.97;100208.62;2147974;82;33479;-65
2022/05/25 11:51:12;;;;;;;4.12;3.30;;;;;;;22.49;58.15;100210.49;2124732;82;27702;-65
2022/05/25 11:54:41;;;;;;;3.58;2.90;;;;;;;22.48;58.51;100218.33;2124724;83;29943;-65
2022/05/25 11:58:14;;;;;;;4.85;3.58;;;;;;;22.45;58.18;100220.84;2125056;83;31961;-65
2022/05/25 12:01:48;;;;;;;5.03;3.80;;;;;;;22.40;58.13;100217.71;2124897;83;34101;-65
2022/05/25 12:05:01;;;;;;;6.15;4.05;;;;;;;22.21;58.01;100217.84;2124922;83;30449;-66
2022/05/25 12:08:36;;;;;;;5.70;3.98;;;;;;;22.10;57.71;100214.30;2153738;81;27724;-64
2022/05/25 12:11:48;;;;;;;4.37;3.97;;;;;;;22.02;57.65;100221.05;2082086;85;29899;-65
2022/05/25 12:15:13;;;;;;;5.90;4.35;;;;;;;22.01;57.97;100220.70;2068392;85;31244;-65
2022/05/25 12:18:41;;;;;;;7.92;4.62;;;;;;;21.85;57.55;100226.80;2082153;85;32986;-66
2022/05/25 12:22:00;;;;;;;4.85;4.30;;;;;;;21.79;58.10;100226.91;2085350;85;29396;-66
2022/05/25 12:25:10;;;;;;;6.58;3.95;;;;;;;21.73;57.92;100226.16;2085615;85;27842;-66
2022/05/25 12:28:11;;;;;;;7.92;4.22;;;;;;;21.62;57.79;100228.58;2017057;88;29988;-65
2022/05/25 12:31:21;;;;;;;6.60;3.50;;;;;;;21.55;57.69;100228.77;2076938;85;31218;-66
2022/05/25 12:34:46;;;;;;;3.58;3.12;;;;;;;21.49;58.15;100230.23;2076928;85;33022;-66
2022/05/25 12:37:53;;;;;;;5.22;3.50;;;;;;;21.14;58.06;100205.89;2015800;88;28508;-66
2022/05/25 12:41:31;;;;;;;6.33;2.97;;;;;;;21.14;58.06;100205.89;2010419;88;27807;-66
2022/05/25 12:51:44;;;;;;;4.53;2.98;;;;;;;21.22;58.14;100235.12;2047047;86;33350;-67
2022/05/25 12:54:47;;;;;;;6.25;2.62;;;;;;;21.25;58.54;100239.80;2046710;86;30382;-64
2022/05/25 12:57:58;;;;;;;5.37;2.87;;;;;;;21.16;58.30;100239.81;2024882;86;27907;-65
2022/05/25 13:01:10;;;;;;;6.30;3.10;;;;;;;21.06;58.65;100235.74;2046748;87;28674;-65
2022/05/25 13:04:42;;;;;;;4.08;3.12;;;;;;;21.00;58.93;100237.68;2047032;86;31024;-66
2022/05/25 13:07:47;;;;;;;6.12;3.10;;;;;;;20.95;59.33;100232.67;2012124;88;33857;-65
2022/05/25 13:10:55;;;;;;;3.95;2.50;;;;;;;20.84;58.95;100238.29;2019342;88;30515;-66
2022/05/25 13:13:59;;;;;;;3.55;2.58;;;;;;;20.67;58.78;100237.09;2017667;87;28295;-65
2022/05/25 13:17:03;;;;;;;;;;;;;;;20.57;59.09;100242.06;2018528;88;28680;-66
2022/05/25 13:20:07;;;;;;;3.17;2.55;;;;;;;20.64;59.76;100239.10;2016014;88;31054;-66
2022/05/25 13:23:08;;;;;;;7.40;3.00;;;;;;;20.71;59.77;100243.47;2023345;87;32868;-66
2022/05/25 13:26:11;;;;;;;7.95;2.70;;;;;;;20.86;59.91;100239.85;2036112;87;30528;-66
2022/05/25 13:29:22;;;;;;;3.58;2.87;;;;;;;20.98;59.72;100238.32;2036650;87;27699;-66
2022/05/25 13:32:55;;;;;;;3.27;2.80;;;;;;;21.05;59.80;100244.41;2028227;86;28648;-66
2022/05/25 13:36:24;;;;;;;7.30;2.75;;;;;;;21.15;59.85;100242.18;1954019;91;31376;-66
2022/05/25 13:39:26;;;;;;;5.22;3.02;;;;;;;21.23;59.98;100243.65;2025328;87;32971;-66
2022/05/25 13:42:29;;;;;;;4.03;2.95;;;;;;;21.26;59.92;100240.64;2018581;88;30301;-66
2022/05/25 13:45:31;;;;;;;4.50;3.47;;;;;;;21.29;59.87;100240.84;2043790;86;27775;-66
2022/05/25 13:48:34;;;;;;;3.60;3.30;;;;;;;21.31;60.15;100244.27;2048715;86;29495;-66
2022/05/25 13:51:37;;;;;;;5.12;4.62;;;;;;;21.30;59.82;100248.88;2017931;88;32224;-66
2022/05/25 13:54:41;;;;;;;4.30;3.90;;;;;;;21.29;60.06;100241.71;2048716;86;33894;-66
2022/05/25 13:57:51;;;;;;;6.95;3.83;;;;;;;21.24;59.84;100234.47;2049033;86;29347;-66
2022/05/25 14:00:53;;;;;;;3.70;3.40;;;;;;;21.18;60.13;100229.12;2049223;86;28405;-65
2022/05/25 14:04:00;;;;;;;5.47;3.62;;;;;;;21.19;60.51;100236.28;2017913;88;28672;-66
2022/05/25 14:07:03;;;;;;;2.52;2.02;;;;;;;21.21;60.56;100236.13;2049144;86;31110;-66
2022/05/25 14:13:46;;;;;;;3.20;2.10;;;;;;;21.20;59.68;100228.95;2099059;84;30524;-66
2022/05/25 14:16:52;;;;;;;3.62;2.83;;;;;;;21.24;59.78;100224.94;2108683;84;27538;-66
2022/05/25 14:19:58;;;;;;;4.67;3.50;;;;;;;21.28;59.91;100231.81;2108662;84;28346;-66
2022/05/25 14:23:00;;;;;;;4.53;3.02;;;;;;;21.34;60.36;100233.96;2108325;83;31030;-65
2022/05/25 14:26:04;;;;;;;5.22;3.95;;;;;;;21.40;60.51;100232.51;2108696;84;34123;-66
2022/05/25 14:29:13;;;;;;;3.35;2.83;;;;;;;21.40;60.43;100231.14;2108399;84;30134;-66
2022/05/25 14:32:28;;;;;;;3.50;3.15;;;;;;;21.40;60.01;100241.52;2108506;84;27713;-65
2022/05/25 14:35:32;;;;;;;3.77;3.27;;;;;;;21.39;60.26;100241.69;2108481;84;29732;-65
2022/05/25 14:38:39;;;;;;;4.80;4.00;;;;;;;21.36;60.39;100235.16;2108990;84;30909;-65
2022/05/25 14:41:56;;;;;;;5.72;3.70;;;;;;;21.32;60.51;100238.70;2100795;83;32985;-66
2022/05/25 14:45:10;;;;;;;5.90;3.70;;;;;;;21.30;60.79;100233.89;2121167;83;29375;-65
2022/05/25 14:48:14;;;;;;;3.80;3.37;;;;;;;21.31;60.65;100233.37;2122047;83;28129;-66
2022/05/25 14:51:19;;;;;;;6.20;3.87;;;;;;;21.24;60.50;100236.71;2085864;85;28656;-66
2022/05/25 14:54:24;;;;;;;4.40;4.00;;;;;;;21.23;60.69;100236.35;2103557;84;31149;-66
2022/05/25 14:57:26;;;;;;;4.15;3.25;;;;;;;21.24;60.91;100229.90;2085287;85;33904;-67
2022/05/25 15:00:30;;;;;;;4.47;3.72;;;;;;;21.17;60.59;100226.55;2085311;85;30700;-65
2022/05/25 15:03:42;;;;;;;3.92;3.62;;;;;;;21.10;60.90;100228.48;2103714;84;27670;-65
2022/05/25 15:06:52;;;;;;;4.33;3.60;;;;;;;21.08;61.01;100231.02;2084894;85;28616;-65